Portada
METAR-TAF:

METAR-TAF

Aeropuertos :

Madrid, España

Aeropuerto de Madrid-Barajas

latitud: 40-27N, longitud: 003-33W, altitud: 609 m

Observación

El informe se hizo hace 29 minutos, a las 00:00 UTC
Viento 16 kt del oeste
Temperatura 8°C
Humedad 57%
Presión 1017 hPa
Visibilidad 10 km o más
Escasas nubes a una altura de 7500 ft

METAR: LEMD 010000Z 28016KT 9999 FEW075 08/00 Q1017 NOSIG

Hora: 02:29 (00:29 UTC)

Pronóstico

El informe se hizo hace 1 hora y 29 minutos, a las 23:00 UTC
Pronóstico válido del 01 a las 00 UTC al 02 a las 06 UTC
Viento 12 kt del noroeste
Visibilidad 10 km o más
Escasas nubes a una altura de 5000 ft
Evolucionando progresivamente
del 01 a las 04 UTC al 01 a las 06 UTC
Viento 5 kt del norte-noreste
Temporalmente
del 01 a las 09 UTC al 01 a las 21 UTC
Viento 5 kt con dirección variable

TAF: LEMD 302300Z 0100/0206 31012KT 9999 FEW050 TX18/0115Z TN03/0106Z BECMG 0104/0106 02005KT TEMPO 0109/0121 VRB05KT

Observaciones y pronósticos meteorológicos de más de 4000 aeropuertos (mensajes METAR y TAF).

Los puntos amarillos y rojos representan las estaciones disponibles.

Ponga el ratón en el punto deseado para ver el nombre de la estación.

Haga clic para ver las observaciones y los pronósticos meteorológicos.

Para cambiar el mapa : haga clic en los botones verdes con una cruz de color negro para hacer un zoom, en el botón verde con un guión para alejar o en las flechas verdes para mapas adyacentes.


METAR-TAF: